Time;durP1;ratioP1;P1;durP2;ratioP2;P2;SDS_P1;SDS_P2;PMS_P1;PMS_P2;Temp;Humidity;BMP_temperature;BMP_pressure;BME280_temperature;BME280_humidity;BME280_pressure;Samples;Min_cycle;Max_cycle;Signal;HPM_P1;HPM_P2
2023/09/25 00:02:01;;;;;;;1.85;1.02;;;;;;;;;;5073074;28;20064;-56
2023/09/25 00:04:28;;;;;;;1.38;0.90;;;;;;;;;;5073261;28;20048;-55
2023/09/25 00:06:55;;;;;;;1.75;1.13;;;;;;;;;;5072874;28;20053;-54
2023/09/25 00:09:23;;;;;;;2.35;1.48;;;;;;;;;;5073078;28;20405;-55
2023/09/25 00:11:49;;;;;;;1.73;1.00;;;;;;;;;;5073079;28;20052;-57
2023/09/25 00:14:16;;;;;;;2.35;0.90;;;;;;;;;;5072484;28;20060;-56
2023/09/25 00:16:44;;;;;;;2.03;0.80;;;;;;;;;;5072880;28;20059;-57
2023/09/25 00:19:11;;;;;;;1.45;0.70;;;;;;;;;;5072740;28;20059;-55
2023/09/25 00:21:38;;;;;;;1.13;0.80;;;;;;;;;;5072709;28;20490;-56
2023/09/25 00:24:05;;;;;;;1.65;0.82;;;;;;;;;;5072752;28;20052;-55
2023/09/25 00:26:33;;;;;;;1.23;0.90;;;;;;;;;;5072979;28;20048;-57
2023/09/25 00:29:00;;;;;;;1.73;0.98;;;;;;;;;;5072288;28;20056;-56
2023/09/25 00:31:27;;;;;;;2.67;0.90;;;;;;;;;;5072602;28;20059;-55
2023/09/25 00:33:56;;;;;;;1.17;0.80;;;;;;;;;;5072609;28;20055;-56
2023/09/25 00:36:22;;;;;;;1.42;0.75;;;;;;;;;;5072274;28;20048;-56
2023/09/25 00:38:50;;;;;;;1.80;1.05;;;;;;;;;;5072261;28;20063;-57
2023/09/25 00:41:16;;;;;;;2.45;1.30;;;;;;;;;;5072580;28;20048;-55
2023/09/25 00:43:43;;;;;;;1.45;0.80;;;;;;;;;;5072509;28;20060;-56
2023/09/25 00:46:10;;;;;;;1.60;1.10;;;;;;;;;;5072413;28;20064;-56
2023/09/25 00:48:42;;;;;;;2.22;1.00;;;;;;;;;;5072534;28;20481;-56
2023/09/25 00:51:10;;;;;;;1.83;1.02;;;;;;;;;;5072781;28;20405;-56
2023/09/25 00:53:40;;;;;;;0.85;0.60;;;;;;;;;;5072536;28;20060;-56
2023/09/25 00:56:07;;;;;;;2.88;1.48;;;;;;;;;;5072368;28;20405;-56
2023/09/25 00:58:34;;;;;;;1.23;0.75;;;;;;;;;;5072223;28;20432;-55
2023/09/25 01:01:01;;;;;;;1.75;0.80;;;;;;;;;;5074270;28;20048;-56
2023/09/25 01:03:30;;;;;;;1.38;0.65;;;;;;;;;;5076573;28;20420;-56
2023/09/25 01:05:57;;;;;;;1.98;1.25;;;;;;;;;;5075947;28;20075;-56
2023/09/25 01:08:25;;;;;;;1.50;0.88;;;;;;;;;;5076255;28;20049;-56
2023/09/25 01:10:52;;;;;;;2.13;0.65;;;;;;;;;;5076250;28;20059;-56
2023/09/25 01:13:19;;;;;;;0.88;0.50;;;;;;;;;;5075883;28;20045;-54
2023/09/25 01:15:46;;;;;;;1.48;0.60;;;;;;;;;;5076209;28;20056;-56
2023/09/25 01:18:12;;;;;;;0.98;0.63;;;;;;;;;;5076345;28;20490;-55
2023/09/25 01:20:39;;;;;;;1.27;0.77;;;;;;;;;;5075867;28;20390;-56
2023/09/25 01:23:07;;;;;;;2.13;1.00;;;;;;;;;;5076390;28;20057;-56
2023/09/25 01:25:34;;;;;;;1.33;0.70;;;;;;;;;;5076078;28;20391;-56
2023/09/25 01:28:01;;;;;;;1.10;0.50;;;;;;;;;;5076149;28;20052;-56
2023/09/25 01:30:31;;;;;;;1.65;0.80;;;;;;;;;;5076321;28;20063;-56
2023/09/25 01:32:58;;;;;;;1.17;0.57;;;;;;;;;;5076057;28;20057;-56
2023/09/25 01:35:26;;;;;;;1.73;0.80;;;;;;;;;;5076084;28;20057;-56
2023/09/25 01:37:57;;;;;;;1.08;0.73;;;;;;;;;;5075917;28;20049;-55
2023/09/25 01:40:25;;;;;;;3.25;0.65;;;;;;;;;;5075766;28;20063;-56
2023/09/25 01:42:52;;;;;;;1.17;0.52;;;;;;;;;;5075626;28;20055;-56
2023/09/25 01:45:19;;;;;;;1.85;0.60;;;;;;;;;;5075123;28;20056;-56
2023/09/25 01:47:49;;;;;;;1.95;0.70;;;;;;;;;;5075525;28;20405;-56
2023/09/25 01:50:17;;;;;;;2.13;0.63;;;;;;;;;;5075660;28;20053;-56
2023/09/25 01:52:44;;;;;;;1.10;0.73;;;;;;;;;;5075560;28;20056;-57
2023/09/25 01:55:10;;;;;;;1.00;0.50;;;;;;;;;;5075189;28;20108;-56
2023/09/25 01:57:38;;;;;;;0.80;0.45;;;;;;;;;;5075427;28;20076;-55
2023/09/25 02:00:09;;;;;;;0.98;0.50;;;;;;;;;;5075313;28;20063;-56
2023/09/25 02:02:36;;;;;;;3.30;0.50;;;;;;;;;;5075449;28;20055;-56
2023/09/25 02:05:03;;;;;;;0.93;0.55;;;;;;;;;;5075461;28;20052;-56
2023/09/25 02:07:30;;;;;;;1.95;1.17;;;;;;;;;;5075294;28;20048;-56
2023/09/25 02:09:57;;;;;;;1.33;0.70;;;;;;;;;;5075327;28;20063;-56
2023/09/25 02:12:24;;;;;;;0.68;0.40;;;;;;;;;;5074250;28;20055;-56
2023/09/25 02:14:52;;;;;;;1.88;0.82;;;;;;;;;;5074930;28;20052;-56
2023/09/25 02:17:19;;;;;;;1.55;0.80;;;;;;;;;;5075278;28;20370;-56
2023/09/25 02:19:47;;;;;;;1.63;0.70;;;;;;;;;;5075118;28;20052;-57
2023/09/25 02:22:14;;;;;;;1.50;0.77;;;;;;;;;;5074888;28;20053;-56
2023/09/25 02:24:41;;;;;;;1.63;0.50;;;;;;;;;;5074705;28;20060;-56
2023/09/25 02:27:07;;;;;;;1.50;0.80;;;;;;;;;;5074930;28;20478;-56
2023/09/25 02:29:34;;;;;;;1.33;0.77;;;;;;;;;;5075321;28;20482;-56
2023/09/25 02:32:02;;;;;;;0.82;0.50;;;;;;;;;;5075142;28;20393;-56
2023/09/25 02:34:29;;;;;;;0.98;0.60;;;;;;;;;;5075071;28;20064;-56
2023/09/25 02:36:56;;;;;;;0.80;0.40;;;;;;;;;;5075087;28;20470;-55
2023/09/25 02:39:23;;;;;;;2.10;1.00;;;;;;;;;;5074415;28;20417;-56
2023/09/25 02:41:49;;;;;;;1.33;0.60;;;;;;;;;;5074586;28;20401;-56
2023/09/25 02:44:16;;;;;;;1.95;1.02;;;;;;;;;;5074233;28;20516;-56
2023/09/25 02:46:43;;;;;;;1.40;0.70;;;;;;;;;;5074603;28;20048;-56
2023/09/25 02:49:11;;;;;;;1.13;0.60;;;;;;;;;;5074514;28;20406;-56
2023/09/25 02:51:38;;;;;;;1.00;0.60;;;;;;;;;;5074306;28;20056;-56
2023/09/25 02:54:05;;;;;;;1.00;0.60;;;;;;;;;;5074129;28;20048;-56
2023/09/25 02:56:31;;;;;;;3.35;0.70;;;;;;;;;;5074387;28;20056;-56
2023/09/25 02:58:58;;;;;;;1.08;0.60;;;;;;;;;;5074002;28;20061;-56
2023/09/25 03:01:25;;;;;;;1.20;0.60;;;;;;;;;;5073979;28;20052;-57
2023/09/25 03:03:52;;;;;;;1.17;0.70;;;;;;;;;;5073927;28;20390;-56
2023/09/25 03:06:20;;;;;;;1.88;0.93;;;;;;;;;;5074040;28;20052;-56
2023/09/25 03:08:47;;;;;;;0.90;0.50;;;;;;;;;;5074061;28;20052;-55
2023/09/25 03:11:14;;;;;;;1.95;0.88;;;;;;;;;;5074170;28;20052;-56
2023/09/25 03:13:40;;;;;;;1.25;0.65;;;;;;;;;;5074323;28;20063;-56
2023/09/25 03:16:12;;;;;;;1.10;0.70;;;;;;;;;;5073691;28;20052;-56
2023/09/25 03:18:39;;;;;;;1.45;0.77;;;;;;;;;;5074148;28;20048;-56
2023/09/25 03:21:10;;;;;;;1.33;0.70;;;;;;;;;;5073914;28;20489;-56
2023/09/25 03:23:38;;;;;;;0.88;0.52;;;;;;;;;;5072780;28;20056;-56
2023/09/25 03:26:12;;;;;;;1.55;0.70;;;;;;;;;;5073404;28;20057;-56
2023/09/25 03:28:39;;;;;;;1.05;0.80;;;;;;;;;;5073654;28;20057;-56
2023/09/25 03:31:06;;;;;;;4.70;1.50;;;;;;;;;;5073606;28;20075;-56
2023/09/25 03:33:33;;;;;;;1.10;0.70;;;;;;;;;;5073946;28;20056;-56
2023/09/25 03:35:59;;;;;;;1.70;0.77;;;;;;;;;;5073438;28;20056;-56
2023/09/25 03:38:26;;;;;;;2.97;0.70;;;;;;;;;;5073785;28;20049;-56
2023/09/25 03:40:54;;;;;;;1.85;0.90;;;;;;;;;;5073497;28;20056;-56
2023/09/25 03:43:21;;;;;;;2.85;1.08;;;;;;;;;;5073164;28;20508;-56
2023/09/25 03:45:48;;;;;;;1.63;0.68;;;;;;;;;;5073141;28;20056;-57
2023/09/25 03:48:15;;;;;;;2.05;1.00;;;;;;;;;;5071173;28;20466;-57
2023/09/25 03:50:42;;;;;;;1.70;0.88;;;;;;;;;;5073198;28;20059;-56
2023/09/25 03:53:10;;;;;;;1.85;0.80;;;;;;;;;;5073740;28;20060;-56
2023/09/25 03:55:36;;;;;;;1.52;0.98;;;;;;;;;;5073192;28;20063;-56
2023/09/25 03:58:05;;;;;;;1.10;0.65;;;;;;;;;;5073612;28;20044;-56
2023/09/25 04:00:31;;;;;;;1.27;0.80;;;;;;;;;;5073416;28;20064;-56
2023/09/25 04:02:58;;;;;;;2.45;0.82;;;;;;;;;;5073537;28;20410;-56
2023/09/25 04:05:25;;;;;;;1.23;0.82;;;;;;;;;;5073143;28;20053;-56
2023/09/25 04:07:52;;;;;;;1.45;0.70;;;;;;;;;;5073336;28;20052;-56
2023/09/25 04:10:19;;;;;;;6.75;1.10;;;;;;;;;;5073261;28;20056;-56
2023/09/25 04:12:46;;;;;;;1.48;1.00;;;;;;;;;;5073581;28;20057;-56
2023/09/25 04:15:16;;;;;;;1.50;0.70;;;;;;;;;;5072876;28;20421;-56
2023/09/25 04:17:43;;;;;;;1.73;0.82;;;;;;;;;;5073099;28;20056;-56
2023/09/25 04:20:17;;;;;;;1.50;0.80;;;;;;;;;;5072830;28;20063;-56
2023/09/25 04:22:46;;;;;;;2.35;0.80;;;;;;;;;;5073290;28;20134;-56
2023/09/25 04:25:18;;;;;;;2.05;0.98;;;;;;;;;;5072824;28;20162;-56
2023/09/25 04:27:45;;;;;;;2.53;0.95;;;;;;;;;;5073290;28;20401;-56
2023/09/25 04:30:14;;;;;;;1.30;0.65;;;;;;;;;;5073293;28;20056;-56
2023/09/25 04:32:43;;;;;;;1.67;1.30;;;;;;;;;;5072605;28;20061;-56
2023/09/25 04:35:12;;;;;;;1.80;1.00;;;;;;;;;;5083581;28;20055;-56
2023/09/25 04:37:39;;;;;;;2.05;0.85;;;;;;;;;;5074065;28;20060;-56
2023/09/25 04:40:13;;;;;;;1.60;1.02;;;;;;;;;;5085769;28;20048;-56
2023/09/25 04:42:40;;;;;;;1.13;0.63;;;;;;;;;;5092866;28;20071;-56
2023/09/25 04:45:12;;;;;;;3.92;0.70;;;;;;;;;;5087314;28;20052;-56
2023/09/25 04:47:38;;;;;;;1.55;0.68;;;;;;;;;;5072950;28;20052;-54
2023/09/25 04:50:08;;;;;;;0.98;0.68;;;;;;;;;;5080874;28;20075;-56
2023/09/25 04:52:35;;;;;;;1.58;0.85;;;;;;;;;;5072073;28;20052;-56
2023/09/25 04:55:04;;;;;;;3.10;1.15;;;;;;;;;;5071487;28;20048;-56
2023/09/25 04:57:31;;;;;;;1.40;0.77;;;;;;;;;;5072035;28;20052;-57
2023/09/25 04:59:58;;;;;;;1.55;1.08;;;;;;;;;;5075091;28;20040;-56
2023/09/25 05:02:24;;;;;;;1.95;1.13;;;;;;;;;;5081284;28;20052;-56
2023/09/25 05:04:51;;;;;;;1.33;0.90;;;;;;;;;;5093010;28;20051;-55
2023/09/25 05:07:20;;;;;;;2.03;0.93;;;;;;;;;;5079379;28;20052;-55
2023/09/25 05:09:47;;;;;;;2.00;1.05;;;;;;;;;;5072277;28;20052;-55
2023/09/25 05:12:14;;;;;;;1.83;1.00;;;;;;;;;;5072310;28;20443;-56
2023/09/25 05:14:41;;;;;;;2.13;1.02;;;;;;;;;;5080512;28;20053;-56
2023/09/25 05:17:08;;;;;;;1.45;0.93;;;;;;;;;;5078041;28;20044;-56
2023/09/25 05:19:34;;;;;;;1.55;1.15;;;;;;;;;;5084243;28;20055;-56
2023/09/25 05:22:01;;;;;;;3.13;1.20;;;;;;;;;;5077649;28;20056;-57
2023/09/25 05:24:29;;;;;;;1.52;1.10;;;;;;;;;;5074515;28;20528;-43
2023/09/25 05:26:56;;;;;;;2.72;1.08;;;;;;;;;;5075639;28;20044;-44
2023/09/25 05:29:23;;;;;;;1.92;1.20;;;;;;;;;;5081315;28;20052;-45
2023/09/25 05:31:49;;;;;;;2.70;1.00;;;;;;;;;;5078348;28;20048;-57
2023/09/25 05:34:16;;;;;;;3.05;0.98;;;;;;;;;;5074571;28;20048;-58
2023/09/25 05:36:43;;;;;;;1.60;1.00;;;;;;;;;;5075110;28;20067;-57
2023/09/25 05:39:10;;;;;;;2.25;1.50;;;;;;;;;;5076686;28;20384;-56
2023/09/25 05:41:39;;;;;;;1.75;1.08;;;;;;;;;;5071591;28;20048;-57
2023/09/25 05:44:06;;;;;;;2.78;1.20;;;;;;;;;;5071278;28;20399;-57
2023/09/25 05:46:32;;;;;;;3.75;1.40;;;;;;;;;;5083397;28;20067;-58
2023/09/25 05:48:59;;;;;;;3.67;1.77;;;;;;;;;;5083935;28;20363;-57
2023/09/25 05:51:26;;;;;;;2.50;1.30;;;;;;;;;;5083144;28;20063;-58
2023/09/25 05:53:53;;;;;;;2.47;1.02;;;;;;;;;;5076747;28;20063;-58
2023/09/25 05:56:20;;;;;;;2.88;1.27;;;;;;;;;;5081231;28;20056;-58
2023/09/25 05:58:48;;;;;;;1.58;0.88;;;;;;;;;;5082971;28;20043;-58
2023/09/25 06:01:15;;;;;;;2.42;1.58;;;;;;;;;;5082796;28;20485;-57
2023/09/25 06:03:42;;;;;;;7.70;1.50;;;;;;;;;;5077219;28;20064;-58
2023/09/25 06:06:09;;;;;;;2.63;0.70;;;;;;;;;;5085529;28;20421;-58
2023/09/25 06:08:36;;;;;;;3.08;0.75;;;;;;;;;;5075213;28;20055;-58
2023/09/25 06:11:03;;;;;;;2.15;1.30;;;;;;;;;;5082701;28;20043;-58
2023/09/25 06:13:30;;;;;;;2.60;1.58;;;;;;;;;;5077840;28;20062;-58
2023/09/25 06:15:58;;;;;;;1.23;0.70;;;;;;;;;;5074212;28;20045;-58
2023/09/25 06:18:26;;;;;;;2.65;0.82;;;;;;;;;;5082502;28;20056;-57
2023/09/25 06:20:52;;;;;;;1.83;1.00;;;;;;;;;;5091728;28;20052;-57
2023/09/25 06:23:19;;;;;;;1.60;0.93;;;;;;;;;;5083599;28;20044;-58
2023/09/25 06:25:46;;;;;;;2.45;1.02;;;;;;;;;;5074832;28;20049;-58
2023/09/25 06:28:14;;;;;;;2.35;1.15;;;;;;;;;;5080064;28;20048;-57
2023/09/25 06:30:41;;;;;;;2.22;0.98;;;;;;;;;;5076683;28;20057;-58
2023/09/25 06:33:09;;;;;;;2.33;1.10;;;;;;;;;;5079348;28;20059;-58
2023/09/25 06:35:36;;;;;;;3.15;1.15;;;;;;;;;;5091325;28;20063;-58
2023/09/25 06:38:03;;;;;;;1.20;0.70;;;;;;;;;;5092528;28;20511;-58
2023/09/25 06:40:30;;;;;;;2.28;0.95;;;;;;;;;;5093948;28;20056;-58
2023/09/25 06:42:57;;;;;;;4.05;1.10;;;;;;;;;;5094096;28;20047;-57
2023/09/25 06:45:24;;;;;;;1.60;0.80;;;;;;;;;;5083463;28;20056;-57
2023/09/25 06:47:51;;;;;;;1.35;0.60;;;;;;;;;;5082136;28;20489;-58
2023/09/25 06:50:19;;;;;;;1.75;0.93;;;;;;;;;;5074985;28;20055;-57
2023/09/25 06:52:46;;;;;;;4.13;1.58;;;;;;;;;;5073939;28;20547;-58
2023/09/25 06:55:13;;;;;;;1.65;0.90;;;;;;;;;;5074465;28;20063;-58
2023/09/25 06:57:40;;;;;;;2.30;1.25;;;;;;;;;;5074152;28;20056;-58
2023/09/25 07:00:09;;;;;;;3.35;0.90;;;;;;;;;;5087544;28;20481;-58
2023/09/25 07:02:36;;;;;;;1.55;0.93;;;;;;;;;;5092184;28;20048;-58
2023/09/25 07:05:03;;;;;;;1.90;0.98;;;;;;;;;;5074553;28;20052;-58
2023/09/25 07:07:31;;;;;;;2.72;1.15;;;;;;;;;;5074086;28;20131;-58
2023/09/25 07:09:58;;;;;;;2.45;1.05;;;;;;;;;;5074098;28;20403;-58
2023/09/25 07:12:25;;;;;;;1.80;0.93;;;;;;;;;;5074577;28;20060;-58
2023/09/25 07:14:55;;;;;;;5.15;1.65;;;;;;;;;;5085450;28;20060;-58
2023/09/25 07:17:22;;;;;;;1.90;1.02;;;;;;;;;;5078166;28;20056;-58
2023/09/25 07:19:50;;;;;;;2.33;1.13;;;;;;;;;;5074115;28;20053;-58
2023/09/25 07:22:16;;;;;;;1.52;1.00;;;;;;;;;;5073920;28;20052;-59
2023/09/25 07:24:45;;;;;;;1.80;0.80;;;;;;;;;;5074108;28;20056;-58
2023/09/25 07:27:11;;;;;;;1.40;0.80;;;;;;;;;;5072868;28;20063;-59
2023/09/25 07:29:38;;;;;;;1.27;0.82;;;;;;;;;;5073910;28;20053;-57
2023/09/25 07:32:05;;;;;;;1.65;1.05;;;;;;;;;;5088574;28;20059;-57
2023/09/25 07:34:32;;;;;;;1.67;1.02;;;;;;;;;;5093810;28;20056;-57
2023/09/25 07:37:00;;;;;;;1.83;0.90;;;;;;;;;;5094147;28;20055;-57
2023/09/25 07:39:27;;;;;;;1.52;0.85;;;;;;;;;;5094059;28;20048;-57
2023/09/25 07:41:55;;;;;;;1.60;0.85;;;;;;;;;;5093759;28;20052;-58
2023/09/25 07:44:26;;;;;;;2.33;1.00;;;;;;;;;;5093345;28;20059;-58
2023/09/25 07:46:53;;;;;;;3.28;1.17;;;;;;;;;;5092950;28;20052;-58
2023/09/25 07:49:20;;;;;;;3.00;0.90;;;;;;;;;;5093870;28;20059;-58
2023/09/25 07:51:48;;;;;;;4.88;0.90;;;;;;;;;;5093415;28;20405;-58
2023/09/25 07:54:15;;;;;;;1.60;0.80;;;;;;;;;;5093816;28;20063;-58
2023/09/25 07:56:42;;;;;;;2.33;0.90;;;;;;;;;;5093798;28;20405;-57
2023/09/25 07:59:10;;;;;;;1.90;0.70;;;;;;;;;;5093620;28;20056;-57
2023/09/25 08:01:39;;;;;;;2.78;0.77;;;;;;;;;;5077632;28;20055;-58
2023/09/25 08:04:06;;;;;;;1.45;0.70;;;;;;;;;;5073334;28;20048;-58
2023/09/25 08:06:33;;;;;;;2.50;1.25;;;;;;;;;;5073001;28;20063;-57
2023/09/25 08:09:00;;;;;;;2.10;0.73;;;;;;;;;;5073417;28;20063;-58
2023/09/25 08:11:28;;;;;;;1.13;0.60;;;;;;;;;;5072342;28;20397;-58
2023/09/25 08:13:54;;;;;;;1.63;0.77;;;;;;;;;;5073919;28;20048;-58
2023/09/25 08:16:23;;;;;;;1.73;0.85;;;;;;;;;;5073810;28;20048;-58
2023/09/25 08:18:50;;;;;;;;;;;;;;;;;;5086945;28;20055;-58
2023/09/25 08:21:16;;;;;;;1.42;0.82;;;;;;;;;;5093305;28;20356;-58
2023/09/25 08:23:43;;;;;;;1.63;0.68;;;;;;;;;;5093376;28;20052;-58
2023/09/25 08:26:10;;;;;;;1.27;0.80;;;;;;;;;;5072730;28;20052;-58
2023/09/25 08:28:37;;;;;;;1.42;0.80;;;;;;;;;;5072533;28;20063;-58
2023/09/25 08:31:04;;;;;;;1.35;0.70;;;;;;;;;;5071655;28;20466;-58
2023/09/25 08:33:32;;;;;;;1.38;0.75;;;;;;;;;;5072585;28;20056;-58
2023/09/25 08:35:59;;;;;;;1.88;0.95;;;;;;;;;;5072696;28;20053;-58
2023/09/25 08:38:26;;;;;;;3.72;1.00;;;;;;;;;;5072771;28;20048;-58
2023/09/25 08:40:53;;;;;;;1.75;0.80;;;;;;;;;;5072717;28;20060;-58
2023/09/25 08:43:21;;;;;;;1.52;0.75;;;;;;;;;;5072190;28;20509;-58
2023/09/25 08:45:49;;;;;;;1.83;1.00;;;;;;;;;;5080269;28;20056;-58
2023/09/25 08:48:17;;;;;;;0.90;0.60;;;;;;;;;;5072992;28;20474;-58
2023/09/25 08:50:46;;;;;;;1.13;0.73;;;;;;;;;;5072261;28;20402;-58
2023/09/25 08:53:13;;;;;;;1.80;0.70;;;;;;;;;;5072821;28;20053;-58
2023/09/25 08:55:40;;;;;;;1.52;0.80;;;;;;;;;;5072380;28;20060;-58
2023/09/25 08:58:08;;;;;;;1.58;0.70;;;;;;;;;;5072585;28;20052;-58
2023/09/25 09:00:35;;;;;;;1.20;0.60;;;;;;;;;;5073024;28;20401;-58
2023/09/25 09:03:02;;;;;;;1.20;0.50;;;;;;;;;;5077419;28;20055;-58
2023/09/25 09:05:29;;;;;;;1.92;0.80;;;;;;;;;;5072826;28;20052;-57
2023/09/25 09:07:58;;;;;;;1.55;0.88;;;;;;;;;;5072688;28;20055;-58
2023/09/25 09:10:29;;;;;;;1.67;0.90;;;;;;;;;;5072198;28;20048;-58
2023/09/25 09:12:56;;;;;;;1.40;0.55;;;;;;;;;;5072831;28;20053;-59
2023/09/25 09:15:27;;;;;;;1.65;0.88;;;;;;;;;;5073078;28;20056;-58
2023/09/25 09:17:54;;;;;;;2.25;0.68;;;;;;;;;;5084941;28;20049;-58
2023/09/25 09:20:21;;;;;;;1.40;0.70;;;;;;;;;;5073119;28;20053;-58
2023/09/25 09:22:51;;;;;;;1.10;0.50;;;;;;;;;;5076374;28;20049;-59
2023/09/25 09:25:20;;;;;;;1.38;0.70;;;;;;;;;;5089169;28;20052;-58
2023/09/25 09:27:47;;;;;;;1.30;0.50;;;;;;;;;;5096781;28;20056;-58
2023/09/25 09:30:20;;;;;;;1.98;1.00;;;;;;;;;;5096099;28;20051;-59
2023/09/25 09:32:48;;;;;;;1.30;0.70;;;;;;;;;;5077196;28;20413;-57
2023/09/25 09:35:16;;;;;;;2.05;0.73;;;;;;;;;;5075910;28;20056;-58
2023/09/25 09:37:44;;;;;;;1.08;0.60;;;;;;;;;;5076163;28;20057;-57
2023/09/25 09:40:11;;;;;;;2.60;0.98;;;;;;;;;;5076395;28;20055;-57
2023/09/25 09:42:40;;;;;;;1.40;0.73;;;;;;;;;;5076250;28;20486;-58
2023/09/25 09:45:08;;;;;;;1.13;0.80;;;;;;;;;;5075552;28;20053;-58
2023/09/25 09:47:37;;;;;;;1.80;0.80;;;;;;;;;;5076910;28;20057;-58
2023/09/25 09:50:03;;;;;;;;;;;;;;;;;;5091957;28;20474;-57
2023/09/25 09:52:31;;;;;;;1.50;0.80;;;;;;;;;;5096239;28;19920;-58
2023/09/25 09:54:58;;;;;;;1.65;0.90;;;;;;;;;;5095862;28;20052;-57
2023/09/25 09:57:26;;;;;;;1.17;0.75;;;;;;;;;;5096110;28;20500;-58
2023/09/25 09:59:55;;;;;;;1.40;0.90;;;;;;;;;;5096024;28;20052;-57
2023/09/25 10:02:22;;;;;;;1.50;0.75;;;;;;;;;;5086729;28;20048;-58
2023/09/25 10:04:49;;;;;;;1.17;0.70;;;;;;;;;;5096069;28;20074;-57
2023/09/25 10:07:17;;;;;;;1.25;0.60;;;;;;;;;;5095571;28;20059;-58
2023/09/25 10:09:56;;;;;;;5.10;0.93;;;;;;;;;;5095502;28;20056;-57
2023/09/25 10:12:38;;;;;;;1.52;0.82;;;;;;;;;;5095914;28;20056;-58
2023/09/25 10:15:08;;;;;;;1.65;0.88;;;;;;;;;;5095645;28;20059;-58
2023/09/25 10:17:39;;;;;;;1.50;0.70;;;;;;;;;;5084305;28;20076;-58
2023/09/25 10:20:27;;;;;;;3.25;0.80;;;;;;;;;;5095727;28;20059;-58
2023/09/25 10:22:53;;;;;;;2.33;0.77;;;;;;;;;;5095621;28;20484;-58
2023/09/25 10:25:20;;;;;;;1.02;0.50;;;;;;;;;;5095294;28;20059;-58
2023/09/25 10:27:47;;;;;;;2.70;1.02;;;;;;;;;;5095702;28;20048;-58
2023/09/25 10:30:17;;;;;;;1.30;0.80;;;;;;;;;;5095483;28;20047;-58
2023/09/25 10:32:50;;;;;;;1.13;0.60;;;;;;;;;;5092711;28;20397;-58
2023/09/25 10:35:35;;;;;;;1.70;0.90;;;;;;;;;;5095035;28;20059;-58
2023/09/25 10:38:09;;;;;;;1.00;0.60;;;;;;;;;;5095342;28;20067;-58
2023/09/25 10:40:36;;;;;;;1.13;0.70;;;;;;;;;;5094945;28;20052;-59
2023/09/25 10:43:03;;;;;;;2.50;0.80;;;;;;;;;;5095187;28;20067;-58
2023/09/25 10:45:33;;;;;;;0.82;0.50;;;;;;;;;;5093254;28;20469;-58
2023/09/25 10:48:00;;;;;;;1.20;0.77;;;;;;;;;;5074860;28;20048;-59
2023/09/25 10:50:27;;;;;;;1.10;0.68;;;;;;;;;;5074539;28;20059;-58
2023/09/25 10:52:54;;;;;;;2.05;0.90;;;;;;;;;;5074880;28;20056;-59
2023/09/25 10:55:21;;;;;;;0.95;0.50;;;;;;;;;;5074452;28;20052;-58
2023/09/25 10:57:48;;;;;;;1.38;0.75;;;;;;;;;;5074787;28;20049;-58
2023/09/25 11:00:17;;;;;;;1.50;0.60;;;;;;;;;;5074575;28;20057;-59
2023/09/25 11:02:45;;;;;;;1.40;0.75;;;;;;;;;;5094358;28;20071;-58
2023/09/25 11:05:12;;;;;;;2.25;0.80;;;;;;;;;;5094385;28;20063;-58
2023/09/25 11:07:39;;;;;;;0.80;0.50;;;;;;;;;;5094614;28;20056;-58
2023/09/25 11:10:08;;;;;;;1.40;0.70;;;;;;;;;;5074485;28;20482;-58
2023/09/25 11:12:36;;;;;;;3.00;0.80;;;;;;;;;;5074149;28;20393;-58
2023/09/25 11:15:04;;;;;;;1.92;0.85;;;;;;;;;;5075006;28;20060;-58
2023/09/25 11:17:31;;;;;;;1.55;0.85;;;;;;;;;;5087200;28;20052;-59
2023/09/25 11:19:59;;;;;;;1.50;0.70;;;;;;;;;;5094107;28;20052;-58
2023/09/25 11:22:27;;;;;;;1.65;0.98;;;;;;;;;;5094313;28;20059;-58
2023/09/25 11:24:54;;;;;;;1.15;0.57;;;;;;;;;;5094423;28;20048;-58
2023/09/25 11:27:22;;;;;;;1.20;0.67;;;;;;;;;;5094451;28;20071;-58
2023/09/25 11:29:49;;;;;;;1.80;0.80;;;;;;;;;;5094165;28;20470;-58
2023/09/25 11:32:16;;;;;;;1.13;0.52;;;;;;;;;;5090758;28;20055;-58
2023/09/25 11:34:44;;;;;;;2.47;1.00;;;;;;;;;;5093829;28;20059;-58
2023/09/25 11:37:20;;;;;;;1.55;0.70;;;;;;;;;;5094223;28;20044;-59
2023/09/25 11:39:46;;;;;;;0.90;0.63;;;;;;;;;;5093765;28;20052;-59
2023/09/25 11:42:13;;;;;;;2.20;0.70;;;;;;;;;;5094041;28;20052;-59
2023/09/25 11:44:40;;;;;;;1.27;0.73;;;;;;;;;;5091646;28;20067;-59
2023/09/25 11:47:07;;;;;;;1.75;0.90;;;;;;;;;;5092737;28;20055;-58
2023/09/25 11:49:34;;;;;;;1.80;0.70;;;;;;;;;;5093471;28;20056;-58
2023/09/25 11:52:00;;;;;;;1.90;0.60;;;;;;;;;;5093751;28;20048;-58
2023/09/25 11:54:29;;;;;;;1.33;0.80;;;;;;;;;;5080833;28;20059;-58
2023/09/25 11:56:57;;;;;;;1.15;0.73;;;;;;;;;;5073423;28;20500;-58
2023/09/25 11:59:23;;;;;;;3.08;0.70;;;;;;;;;;5073073;28;20055;-58
2023/09/25 12:01:51;;;;;;;1.50;0.75;;;;;;;;;;5088358;28;20055;-58
2023/09/25 12:04:18;;;;;;;1.23;0.70;;;;;;;;;;5093796;28;20052;-58
2023/09/25 12:06:47;;;;;;;1.98;0.90;;;;;;;;;;5093418;28;20404;-58
2023/09/25 12:09:13;;;;;;;1.27;0.70;;;;;;;;;;5083200;28;20074;-58
2023/09/25 12:11:42;;;;;;;1.25;0.70;;;;;;;;;;5072958;28;20059;-58
2023/09/25 12:14:09;;;;;;;1.33;0.68;;;;;;;;;;5078422;28;20059;-59
2023/09/25 12:16:36;;;;;;;1.23;0.63;;;;;;;;;;5079764;28;20052;-58
2023/09/25 12:19:04;;;;;;;1.42;0.70;;;;;;;;;;5073329;28;20056;-58
2023/09/25 12:21:31;;;;;;;2.20;0.70;;;;;;;;;;5072870;28;20045;-58
2023/09/25 12:23:58;;;;;;;0.90;0.60;;;;;;;;;;5073226;28;20159;-58
2023/09/25 12:26:24;;;;;;;1.40;0.70;;;;;;;;;;5083679;28;20055;-58
2023/09/25 12:28:52;;;;;;;1.20;0.52;;;;;;;;;;5093249;28;20058;-58
2023/09/25 12:31:19;;;;;;;1.95;0.93;;;;;;;;;;5083774;28;20056;-58
2023/09/25 12:33:46;;;;;;;1.23;0.85;;;;;;;;;;5073172;28;20056;-58
2023/09/25 12:36:13;;;;;;;3.45;1.10;;;;;;;;;;5073021;28;20059;-58
2023/09/25 12:38:40;;;;;;;1.40;0.70;;;;;;;;;;5073156;28;20060;-58
2023/09/25 12:41:07;;;;;;;3.27;1.17;;;;;;;;;;5072932;28;20473;-58
2023/09/25 12:43:33;;;;;;;1.75;0.93;;;;;;;;;;5072308;28;20402;-58
2023/09/25 12:46:02;;;;;;;0.95;0.60;;;;;;;;;;5076091;28;20501;-58
2023/09/25 12:48:29;;;;;;;1.35;0.68;;;;;;;;;;5093004;28;20060;-58
2023/09/25 12:50:56;;;;;;;3.45;0.60;;;;;;;;;;5092942;28;20055;-58
2023/09/25 12:53:23;;;;;;;1.10;0.52;;;;;;;;;;5092851;28;20048;-58
2023/09/25 12:55:49;;;;;;;1.98;1.13;;;;;;;;;;5093391;28;20489;-58
2023/09/25 12:58:16;;;;;;;2.42;0.70;;;;;;;;;;5099903;28;20378;-58
2023/09/25 13:00:43;;;;;;;1.65;0.88;;;;;;;;;;5097039;28;20420;-59
2023/09/25 13:03:11;;;;;;;1.10;0.60;;;;;;;;;;5099150;28;20044;-58
2023/09/25 13:05:37;;;;;;;;;;;;;;;;;;5099939;28;20052;-58
2023/09/25 13:08:05;;;;;;;3.08;0.98;;;;;;;;;;5099404;28;19920;-58
2023/09/25 13:10:31;;;;;;;1.52;0.73;;;;;;;;;;5098927;28;20052;-57
2023/09/25 13:12:58;;;;;;;1.75;0.85;;;;;;;;;;5099470;28;20043;-58
2023/09/25 13:15:25;;;;;;;1.95;0.90;;;;;;;;;;5094728;28;20059;-57
2023/09/25 13:17:52;;;;;;;2.25;0.82;;;;;;;;;;5079244;28;20056;-58
2023/09/25 13:20:20;;;;;;;1.63;0.82;;;;;;;;;;5099409;28;20059;-57
2023/09/25 13:22:47;;;;;;;1.73;0.70;;;;;;;;;;5099091;28;20048;-57
2023/09/25 13:25:14;;;;;;;1.52;0.90;;;;;;;;;;5099032;28;20056;-57
2023/09/25 13:27:42;;;;;;;1.63;1.08;;;;;;;;;;5099526;28;20063;-57
2023/09/25 13:30:15;;;;;;;5.70;1.77;;;;;;;;;;5097818;28;20052;-57
2023/09/25 13:32:42;;;;;;;1.38;0.90;;;;;;;;;;5078893;28;20056;-57
2023/09/25 13:35:09;;;;;;;1.15;0.80;;;;;;;;;;5078980;28;20056;-58
2023/09/25 13:37:38;;;;;;;1.67;0.80;;;;;;;;;;5079002;28;20060;-57
2023/09/25 13:40:06;;;;;;;2.45;0.90;;;;;;;;;;5079140;28;20131;-57
2023/09/25 13:42:33;;;;;;;1.15;0.60;;;;;;;;;;5083893;28;20107;-57
2023/09/25 13:45:00;;;;;;;2.25;0.70;;;;;;;;;;5080972;28;20068;-58
2023/09/25 13:47:27;;;;;;;2.30;0.70;;;;;;;;;;5079888;28;20462;-58
2023/09/25 13:49:54;;;;;;;1.30;0.60;;;;;;;;;;5079007;28;20056;-58
2023/09/25 13:52:21;;;;;;;1.30;0.75;;;;;;;;;;5079085;28;20055;-58
2023/09/25 13:54:51;;;;;;;1.60;0.80;;;;;;;;;;5078932;28;20052;-58
2023/09/25 13:57:18;;;;;;;2.05;1.05;;;;;;;;;;5078537;28;20052;-58
2023/09/25 13:59:45;;;;;;;1.77;0.80;;;;;;;;;;5078943;28;20052;-57
2023/09/25 14:02:11;;;;;;;1.63;0.90;;;;;;;;;;5091920;28;20044;-58
2023/09/25 14:04:38;;;;;;;1.40;0.70;;;;;;;;;;5098912;28;20048;-58
2023/09/25 14:07:05;;;;;;;1.40;0.88;;;;;;;;;;5098666;28;20059;-57
2023/09/25 14:09:32;;;;;;;2.65;0.90;;;;;;;;;;5094683;28;20118;-57
2023/09/25 14:12:00;;;;;;;1.88;0.80;;;;;;;;;;5095596;28;20058;-58
2023/09/25 14:14:40;;;;;;;2.30;0.80;;;;;;;;;;5095413;28;20056;-57
2023/09/25 14:17:08;;;;;;;1.40;0.75;;;;;;;;;;5092454;28;20063;-57
2023/09/25 14:19:34;;;;;;;1.23;0.60;;;;;;;;;;5095540;28;20059;-57
2023/09/25 14:22:02;;;;;;;1.98;0.80;;;;;;;;;;5095263;28;20485;-57
2023/09/25 14:24:28;;;;;;;2.38;0.70;;;;;;;;;;5095392;28;20443;-57
2023/09/25 14:26:59;;;;;;;1.27;0.68;;;;;;;;;;5095261;28;20481;-57
2023/09/25 14:29:27;;;;;;;1.48;0.60;;;;;;;;;;5095263;28;20095;-56
2023/09/25 14:31:54;;;;;;;1.23;0.70;;;;;;;;;;5093146;28;20051;-57
2023/09/25 14:34:21;;;;;;;1.98;0.88;;;;;;;;;;5094723;28;20044;-57
2023/09/25 14:36:49;;;;;;;2.97;0.90;;;;;;;;;;5094880;28;20055;-57
2023/09/25 14:39:16;;;;;;;2.92;1.15;;;;;;;;;;5094791;28;20528;-57
2023/09/25 14:41:43;;;;;;;1.25;0.65;;;;;;;;;;5094784;28;20051;-57
2023/09/25 14:44:09;;;;;;;1.55;1.08;;;;;;;;;;5094265;28;20078;-57
2023/09/25 14:46:37;;;;;;;1.77;0.73;;;;;;;;;;5075835;28;20060;-57